createdAt,value
2018-01-21T00:00:25.666Z,21.35
2018-01-21T00:01:31.390Z,25.37
2018-01-21T00:02:37.135Z,22.80
2018-01-21T00:03:42.873Z,31.12
2018-01-21T00:04:48.614Z,29.75
2018-01-21T00:05:54.386Z,20.70
2018-01-21T00:07:00.116Z,24.48
2018-01-21T00:08:05.840Z,23.52
2018-01-21T00:09:11.568Z,23.62
2018-01-21T00:10:17.312Z,23.33
2018-01-21T00:11:23.084Z,22.85
2018-01-21T00:12:28.818Z,21.85
2018-01-21T00:13:34.578Z,23.67
2018-01-21T00:14:40.324Z,23.87
2018-01-21T00:15:46.053Z,22.92
2018-01-21T00:16:51.652Z,22.75
2018-01-21T00:17:57.409Z,19.45
2018-01-21T00:19:03.155Z,21.08
2018-01-21T00:20:08.903Z,20.85
2018-01-21T00:21:14.635Z,21.45
2018-01-21T00:22:47.105Z,18.73
2018-01-21T00:23:52.836Z,23.20
2018-01-21T00:24:58.563Z,19.40
2018-01-21T00:26:05.072Z,21.42
2018-01-21T00:27:10.835Z,20.52
2018-01-21T00:28:16.613Z,23.62
2018-01-21T00:29:22.383Z,19.73
2018-01-21T00:30:28.126Z,19.55
2018-01-21T00:31:33.872Z,19.77
2018-01-21T00:32:39.600Z,20.92
2018-01-21T00:33:45.363Z,17.85
2018-01-21T00:34:51.108Z,21.25
2018-01-21T00:35:56.849Z,19.80
2018-01-21T00:37:02.594Z,20.50
2018-01-21T00:38:09.132Z,16.95
2018-01-21T00:39:14.950Z,17.52
2018-01-21T00:40:20.703Z,18.25
2018-01-21T00:41:26.428Z,19.70
2018-01-21T00:42:32.187Z,17.37
2018-01-21T00:43:37.924Z,20.20
2018-01-21T00:44:43.677Z,20.17
2018-01-21T00:45:49.395Z,17.77
2018-01-21T00:46:55.160Z,17.95
2018-01-21T00:48:00.896Z,18.40
2018-01-21T00:49:06.639Z,20.85
2018-01-21T00:50:12.438Z,17.67
2018-01-21T00:51:18.947Z,17.37
2018-01-21T00:52:24.837Z,19.12
2018-01-21T00:53:31.352Z,21.33
2018-01-21T00:54:37.084Z,23.02
2018-01-21T00:55:42.857Z,16.58
2018-01-21T00:56:48.611Z,18.85
2018-01-21T00:57:54.354Z,19.83
2018-01-21T00:59:00.152Z,18.45
2018-01-21T01:00:05.242Z,19.83
2018-01-21T01:01:11.761Z,18.10
2018-01-21T01:02:17.510Z,16.58
2018-01-21T01:03:23.258Z,14.93
2018-01-21T01:04:29.059Z,15.63
2018-01-21T01:05:34.806Z,18.08
2018-01-21T01:06:40.572Z,17.77
2018-01-21T01:07:47.838Z,16.27
2018-01-21T01:08:53.580Z,18.20
2018-01-21T01:09:59.336Z,16.85
2018-01-21T01:11:05.086Z,15.98
2018-01-21T01:12:10.864Z,16.15
2018-01-21T01:13:16.588Z,16.92
2018-01-21T01:14:23.128Z,17.15
2018-01-21T01:15:29.704Z,16.95
2018-01-21T01:16:35.651Z,18.27
2018-01-21T01:17:42.182Z,18.67
2018-01-21T01:18:48.918Z,16.17
2018-01-21T01:19:54.666Z,22.00
2018-01-21T01:21:00.398Z,22.65
2018-01-21T01:22:06.148Z,16.35
2018-01-21T01:23:11.904Z,17.42
2018-01-21T01:24:17.639Z,17.17
2018-01-21T01:25:23.375Z,19.45
2018-01-21T01:26:29.173Z,20.25
2018-01-21T01:27:34.925Z,20.92
2018-01-21T01:28:40.699Z,16.17
2018-01-21T01:29:46.450Z,23.20
2018-01-21T01:30:52.195Z,13.40
2018-01-21T01:31:57.941Z,17.20
2018-01-21T01:33:03.664Z,15.40
2018-01-21T01:34:09.431Z,16.50
2018-01-21T01:35:15.182Z,18.95
2018-01-21T01:36:20.935Z,15.25
2018-01-21T01:37:27.563Z,18.87
2018-01-21T01:38:32.982Z,14.90
2018-01-21T01:39:38.735Z,16.48
2018-01-21T01:40:44.487Z,15.85
2018-01-21T01:41:50.240Z,15.70
2018-01-21T01:42:56.025Z,16.40
2018-01-21T01:44:01.752Z,17.08
2018-01-21T01:45:07.503Z,13.20
2018-01-21T01:46:13.240Z,17.65
2018-01-21T01:47:18.976Z,16.75
2018-01-21T01:48:24.714Z,17.48
2018-01-21T01:49:31.232Z,15.73
2018-01-21T01:50:36.992Z,19.73
2018-01-21T01:51:42.721Z,17.35
2018-01-21T01:52:49.218Z,15.98
2018-01-21T01:53:54.964Z,15.23
2018-01-21T01:55:00.696Z,14.93
2018-01-21T01:56:06.451Z,15.80
2018-01-21T01:57:12.176Z,13.02
2018-01-21T01:58:17.931Z,13.88
2018-01-21T01:59:23.677Z,13.90
2018-01-21T02:00:29.428Z,13.50
2018-01-21T02:01:35.201Z,13.77
2018-01-21T02:02:40.986Z,16.25
2018-01-21T02:03:46.725Z,13.52
2018-01-21T02:04:53.266Z,15.50
2018-01-21T02:05:59.013Z,14.70
2018-01-21T02:07:05.564Z,15.98
2018-01-21T02:08:11.287Z,14.13
2018-01-21T02:09:17.043Z,15.30
2018-01-21T02:10:22.768Z,15.27
2018-01-21T02:11:28.520Z,20.52
2018-01-21T02:12:34.295Z,17.37
2018-01-21T02:13:40.806Z,15.75
2018-01-21T02:14:46.539Z,18.42
2018-01-21T02:15:52.278Z,14.10
2018-01-21T02:16:58.022Z,14.43
2018-01-21T02:18:03.775Z,15.77
2018-01-21T02:19:09.519Z,14.18
2018-01-21T02:20:18.372Z,15.45
2018-01-21T02:21:24.128Z,18.52
2018-01-21T02:22:29.890Z,15.55
2018-01-21T02:23:35.656Z,16.08
2018-01-21T02:24:42.177Z,17.33
2018-01-21T02:25:47.895Z,13.90
2018-01-21T02:26:54.392Z,16.00
2018-01-21T02:28:00.124Z,16.02
2018-01-21T02:29:05.885Z,15.30
2018-01-21T02:30:10.786Z,17.80
2018-01-21T02:31:16.559Z,18.05
2018-01-21T02:32:22.292Z,21.80
2018-01-21T02:33:28.019Z,15.88
2018-01-21T02:34:33.800Z,17.23
2018-01-21T02:35:39.541Z,17.15
2018-01-21T02:36:46.052Z,22.13
2018-01-21T02:37:51.798Z,20.27
2018-01-21T02:38:57.582Z,15.68
2018-01-21T02:40:03.359Z,17.42
2018-01-21T02:41:09.112Z,19.58
2018-01-21T02:42:14.864Z,17.83
2018-01-21T02:43:20.612Z,18.37
2018-01-21T02:44:26.375Z,18.77
2018-01-21T02:45:32.156Z,17.20
2018-01-21T02:46:38.669Z,21.58
2018-01-21T02:47:44.398Z,21.52
2018-01-21T02:48:50.144Z,18.87
2018-01-21T02:49:55.872Z,22.00
2018-01-21T02:51:01.628Z,21.85
2018-01-21T02:52:07.429Z,22.20
2018-01-21T02:53:13.185Z,22.65
2018-01-21T02:54:19.026Z,24.00
2018-01-21T02:55:24.779Z,22.10
2018-01-21T02:56:30.599Z,21.42
2018-01-21T02:57:36.331Z,20.35
2018-01-21T02:58:42.816Z,24.40
2018-01-21T02:59:48.561Z,22.67
2018-01-21T03:00:54.303Z,19.25
2018-01-21T03:02:00.072Z,24.33
2018-01-21T03:03:07.313Z,22.27
2018-01-21T03:04:13.059Z,26.00
2018-01-21T03:05:18.784Z,19.23
2018-01-21T03:06:24.524Z,20.83
2018-01-21T03:07:30.320Z,20.48
2018-01-21T03:08:36.853Z,24.27
2018-01-21T03:09:42.598Z,21.67
2018-01-21T03:10:48.343Z,16.65
2018-01-21T03:11:54.103Z,25.58
2018-01-21T03:12:59.880Z,24.58
2018-01-21T03:14:06.430Z,26.67
2018-01-21T03:15:12.916Z,25.10
2018-01-21T03:16:18.672Z,20.60
2018-01-21T03:17:24.411Z,27.40
2018-01-21T03:18:30.203Z,22.90
2018-01-21T03:19:35.940Z,24.02
2018-01-21T03:20:41.678Z,25.65
2018-01-21T03:21:47.426Z,22.05
2018-01-21T03:22:53.153Z,24.45
2018-01-21T03:23:58.921Z,20.95
2018-01-21T03:25:05.421Z,22.62
2018-01-21T03:26:10.958Z,22.13
2018-01-21T03:27:16.719Z,21.87
2018-01-21T03:28:22.446Z,23.87
2018-01-21T03:29:28.210Z,22.70
2018-01-21T03:30:33.951Z,22.13
2018-01-21T03:31:40.465Z,23.58
2018-01-21T03:32:46.211Z,24.00
2018-01-21T03:33:51.942Z,26.62
2018-01-21T03:34:57.786Z,22.05
2018-01-21T03:36:03.516Z,21.98
2018-01-21T03:37:10.072Z,26.23
2018-01-21T03:38:16.607Z,21.62
2018-01-21T03:39:23.914Z,24.60
2018-01-21T03:40:30.454Z,22.67
2018-01-21T03:41:36.953Z,21.83
2018-01-21T03:42:42.696Z,24.83
2018-01-21T03:43:48.525Z,24.60
2018-01-21T03:44:54.261Z,21.50
2018-01-21T03:46:00.621Z,24.05
2018-01-21T03:47:07.180Z,22.00
2018-01-21T03:48:12.926Z,21.25
2018-01-21T03:49:18.677Z,20.02
2018-01-21T03:50:24.408Z,23.98
2018-01-21T03:51:30.166Z,20.27
2018-01-21T03:52:35.901Z,20.20
2018-01-21T03:53:41.445Z,21.62
2018-01-21T03:54:47.185Z,22.73
2018-01-21T03:55:52.908Z,23.40
2018-01-21T03:56:58.661Z,22.35
2018-01-21T03:58:04.186Z,18.02
2018-01-21T03:59:09.913Z,20.62
2018-01-21T04:00:15.652Z,18.23
2018-01-21T04:01:22.174Z,19.25
2018-01-21T04:02:27.936Z,21.50
2018-01-21T04:03:34.433Z,20.55
2018-01-21T04:04:40.157Z,19.20
2018-01-21T04:05:45.915Z,19.15
2018-01-21T04:06:51.665Z,19.77
2018-01-21T04:07:57.428Z,22.10
2018-01-21T04:09:03.196Z,18.20
2018-01-21T04:10:08.941Z,19.00
2018-01-21T04:11:14.691Z,21.02
2018-01-21T04:12:21.213Z,17.77
2018-01-21T04:13:27.010Z,20.65
2018-01-21T04:14:32.810Z,23.17
2018-01-21T04:15:38.544Z,18.67
2018-01-21T04:16:44.291Z,15.95
2018-01-21T04:17:50.050Z,19.12
2018-01-21T04:18:55.844Z,20.35
2018-01-21T04:20:01.592Z,20.45
2018-01-21T04:21:07.320Z,20.05
2018-01-21T04:22:13.091Z,22.30
2018-01-21T04:23:18.628Z,18.35
2018-01-21T04:24:24.388Z,18.80
2018-01-21T04:25:30.128Z,16.10
2018-01-21T04:26:35.880Z,17.45
2018-01-21T04:27:41.605Z,15.82
2018-01-21T04:28:47.354Z,13.62
2018-01-21T04:29:53.127Z,15.85
2018-01-21T04:30:58.874Z,17.17
2018-01-21T04:32:04.604Z,14.50
2018-01-21T04:33:11.119Z,17.42
2018-01-21T04:34:16.539Z,13.32
2018-01-21T04:35:22.306Z,16.17
2018-01-21T04:36:29.540Z,22.40
2018-01-21T04:37:35.284Z,16.70
2018-01-21T04:38:41.804Z,15.40
2018-01-21T04:39:48.321Z,16.75
2018-01-21T04:40:53.775Z,19.98
2018-01-21T04:42:00.307Z,18.83
2018-01-21T04:43:06.056Z,17.23
2018-01-21T04:44:11.788Z,15.15
2018-01-21T04:45:17.539Z,16.65
2018-01-21T04:46:22.986Z,19.80
2018-01-21T04:47:28.758Z,17.58
2018-01-21T04:48:35.007Z,14.75
2018-01-21T04:49:41.501Z,18.87
2018-01-21T04:50:47.244Z,19.30
2018-01-21T04:51:52.996Z,22.50
2018-01-21T04:52:58.727Z,18.15
2018-01-21T04:54:04.473Z,20.65
2018-01-21T04:55:10.195Z,20.83
2018-01-21T04:56:15.956Z,20.55
2018-01-21T04:57:21.718Z,22.55
2018-01-21T04:58:27.457Z,22.05
2018-01-21T04:59:33.207Z,19.67
2018-01-21T05:00:38.950Z,22.62
2018-01-21T05:01:44.350Z,23.45
2018-01-21T05:02:50.096Z,20.95
2018-01-21T05:03:55.828Z,22.15
2018-01-21T05:05:01.235Z,28.40
2018-01-21T05:06:07.747Z,22.48
2018-01-21T05:07:13.477Z,25.65
2018-01-21T05:08:19.251Z,20.17
2018-01-21T05:09:24.964Z,26.45
2018-01-21T05:10:30.715Z,20.77
2018-01-21T05:11:36.427Z,21.83
2018-01-21T05:12:42.160Z,21.45
2018-01-21T05:13:47.943Z,21.52
2018-01-21T05:14:53.689Z,24.67
2018-01-21T05:15:59.408Z,23.05
2018-01-21T05:17:05.147Z,21.95
2018-01-21T05:18:10.873Z,24.23
2018-01-21T05:19:16.624Z,20.00
2018-01-21T05:20:22.361Z,20.95
2018-01-21T05:21:28.089Z,29.15
2018-01-21T05:22:33.831Z,23.35
2018-01-21T05:23:39.560Z,20.25
2018-01-21T05:24:46.178Z,20.98
2018-01-21T05:25:51.904Z,22.90
2018-01-21T05:26:57.620Z,22.75
2018-01-21T05:28:03.452Z,23.38
2018-01-21T05:29:09.185Z,21.87
2018-01-21T05:30:15.700Z,22.62
2018-01-21T05:31:21.454Z,22.55
2018-01-21T05:32:27.183Z,23.30
2018-01-21T05:33:32.944Z,22.35
2018-01-21T05:34:38.696Z,24.48
2018-01-21T05:35:45.217Z,24.33
2018-01-21T05:36:50.950Z,25.90
2018-01-21T05:37:56.686Z,23.33
2018-01-21T05:39:02.412Z,28.23
2018-01-21T05:40:08.169Z,25.15
2018-01-21T05:41:13.930Z,27.42
2018-01-21T05:42:19.676Z,25.12
2018-01-21T05:43:25.401Z,25.85
2018-01-21T05:44:31.126Z,26.10
2018-01-21T05:45:36.867Z,25.23
2018-01-21T05:46:42.632Z,23.55
2018-01-21T05:47:48.349Z,26.15
2018-01-21T05:48:54.104Z,26.80
2018-01-21T05:49:59.859Z,27.33
2018-01-21T05:51:05.409Z,26.80
2018-01-21T05:52:11.152Z,27.83
2018-01-21T05:53:17.642Z,27.08
2018-01-21T05:54:23.962Z,30.80
2018-01-21T05:55:29.714Z,27.15
2018-01-21T05:56:36.624Z,26.98
2018-01-21T05:57:42.437Z,29.02
2018-01-21T05:58:48.936Z,28.83
2018-01-21T05:59:54.682Z,27.48
2018-01-21T06:01:00.494Z,26.05
2018-01-21T06:02:06.252Z,26.90
2018-01-21T06:03:12.059Z,28.45
2018-01-21T06:04:17.976Z,27.73
2018-01-21T06:05:23.716Z,31.27
2018-01-21T06:06:29.444Z,31.00
2018-01-21T06:07:35.164Z,26.45
2018-01-21T06:08:40.947Z,28.35
2018-01-21T06:09:46.682Z,34.13
2018-01-21T06:10:52.427Z,29.85
2018-01-21T06:11:58.162Z,28.38
2018-01-21T06:13:03.881Z,28.73
2018-01-21T06:14:09.628Z,27.35
2018-01-21T06:15:15.367Z,26.60
2018-01-21T06:16:21.097Z,28.48
2018-01-21T06:17:26.838Z,30.70
2018-01-21T06:18:32.580Z,31.60
2018-01-21T06:19:38.152Z,32.75
2018-01-21T06:20:43.689Z,29.42
2018-01-21T06:21:50.206Z,31.87
2018-01-21T06:22:55.932Z,28.90
2018-01-21T06:24:01.659Z,28.05
2018-01-21T06:25:07.463Z,34.08
2018-01-21T06:26:13.191Z,32.35
2018-01-21T06:27:18.944Z,33.22
2018-01-21T06:28:24.659Z,34.08
2018-01-21T06:29:30.409Z,29.98
2018-01-21T06:30:36.156Z,33.65
2018-01-21T06:31:41.889Z,30.83
2018-01-21T06:32:47.617Z,33.63
2018-01-21T06:33:53.340Z,34.92
2018-01-21T06:34:59.072Z,33.00
2018-01-21T06:36:04.842Z,31.73
2018-01-21T06:37:10.574Z,29.60
2018-01-21T06:38:16.296Z,33.00
2018-01-21T06:39:22.816Z,28.02
2018-01-21T06:40:28.601Z,30.58
2018-01-21T06:41:35.119Z,30.52
2018-01-21T06:42:40.845Z,31.73
2018-01-21T06:43:46.630Z,32.95
2018-01-21T06:44:53.118Z,31.52
2018-01-21T06:45:58.868Z,33.33
2018-01-21T06:47:04.612Z,32.30
2018-01-21T06:48:10.585Z,34.17
2018-01-21T06:49:16.331Z,34.38
2018-01-21T06:50:22.052Z,34.38
2018-01-21T06:51:27.776Z,31.42
2018-01-21T06:52:33.754Z,30.73
2018-01-21T06:53:39.476Z,30.45
2018-01-21T06:54:45.226Z,31.17
2018-01-21T06:55:50.964Z,34.85
2018-01-21T06:56:56.694Z,33.20
2018-01-21T06:58:02.479Z,28.85
2018-01-21T06:59:08.237Z,30.42
2018-01-21T07:00:14.746Z,29.87
2018-01-21T07:01:20.476Z,29.75
2018-01-21T07:02:26.194Z,25.80
2018-01-21T07:03:31.956Z,28.52
2018-01-21T07:04:37.699Z,26.62
2018-01-21T07:05:43.431Z,28.60
2018-01-21T07:06:49.232Z,29.02
2018-01-21T07:07:55.163Z,26.20
2018-01-21T07:09:00.948Z,31.90
2018-01-21T07:10:06.672Z,30.35
2018-01-21T07:11:13.183Z,28.38
2018-01-21T07:12:18.910Z,27.50
2018-01-21T07:13:24.666Z,29.30
2018-01-21T07:14:30.435Z,25.83
2018-01-21T07:15:36.215Z,27.15
2018-01-21T07:16:41.975Z,28.95
2018-01-21T07:17:47.777Z,27.08
2018-01-21T07:18:53.520Z,26.00
2018-01-21T07:20:00.076Z,28.92
2018-01-21T07:21:06.579Z,27.67
2018-01-21T07:22:12.474Z,29.40
2018-01-21T07:23:18.200Z,28.83
2018-01-21T07:24:23.962Z,27.65
2018-01-21T07:25:29.712Z,26.02
2018-01-21T07:26:36.196Z,26.12
2018-01-21T07:27:41.764Z,26.55
2018-01-21T07:28:47.534Z,24.67
2018-01-21T07:29:53.275Z,23.38
2018-01-21T07:30:59.025Z,24.90
2018-01-21T07:32:05.647Z,24.45
2018-01-21T07:33:11.382Z,23.80
2018-01-21T07:34:17.110Z,27.08
2018-01-21T07:35:22.850Z,25.90
2018-01-21T07:36:28.627Z,26.98
2018-01-21T07:37:34.367Z,25.55
2018-01-21T07:38:41.604Z,30.45
2018-01-21T07:39:47.360Z,28.73
2018-01-21T07:40:53.106Z,25.08
2018-01-21T07:41:58.889Z,23.08
2018-01-21T07:43:04.631Z,27.80
2018-01-21T07:44:10.372Z,25.48
2018-01-21T07:45:16.862Z,27.30
2018-01-21T07:46:22.768Z,25.02
2018-01-21T07:47:28.560Z,29.30
2018-01-21T07:48:34.290Z,24.30
2018-01-21T07:49:40.032Z,24.60
2018-01-21T07:50:45.752Z,24.02
2018-01-21T07:51:52.266Z,26.45
2018-01-21T07:52:58.040Z,25.15
2018-01-21T07:54:04.619Z,24.20
2018-01-21T07:55:11.367Z,23.60
2018-01-21T07:56:17.285Z,25.25
2018-01-21T07:57:23.032Z,22.80
2018-01-21T07:58:28.803Z,26.37
2018-01-21T07:59:35.332Z,27.60
2018-01-21T08:00:41.074Z,26.42
2018-01-21T08:01:46.842Z,21.92
2018-01-21T08:02:53.355Z,21.90
2018-01-21T08:03:59.122Z,26.05
2018-01-21T08:05:04.852Z,25.17
2018-01-21T08:06:10.590Z,25.00
2018-01-21T08:07:16.364Z,24.85
2018-01-21T08:08:22.341Z,22.23
2018-01-21T08:09:28.354Z,22.92
2018-01-21T08:10:34.098Z,28.48
2018-01-21T08:11:40.600Z,22.62
2018-01-21T08:12:46.329Z,28.98
2018-01-21T08:13:52.099Z,26.17
2018-01-21T08:14:58.787Z,23.90
2018-01-21T08:16:04.522Z,22.10
2018-01-21T08:17:10.239Z,23.52
2018-01-21T08:18:15.963Z,25.33
2018-01-21T08:19:21.692Z,29.42
2018-01-21T08:20:27.448Z,26.67
2018-01-21T08:21:33.603Z,25.90
2018-01-21T08:22:39.377Z,25.40
2018-01-21T08:23:45.099Z,24.73
2018-01-21T08:24:50.831Z,25.80
2018-01-21T08:25:56.602Z,24.50
2018-01-21T08:27:03.100Z,23.20
2018-01-21T08:28:09.661Z,24.23
2018-01-21T08:29:16.355Z,27.00
2018-01-21T08:30:22.090Z,26.15
2018-01-21T08:31:27.863Z,24.58
2018-01-21T08:32:33.810Z,24.95
2018-01-21T08:33:39.370Z,27.62
2018-01-21T08:34:51.282Z,29.87
2018-01-21T08:37:43.183Z,25.88
2018-01-21T08:38:54.932Z,30.10
2018-01-21T08:40:06.087Z,24.08
2018-01-21T08:42:54.170Z,28.33
2018-01-21T08:43:59.934Z,28.92
2018-01-21T08:45:06.449Z,29.50
2018-01-21T08:46:12.186Z,29.00
2018-01-21T08:47:17.946Z,25.70
2018-01-21T08:48:23.701Z,24.85
2018-01-21T08:49:29.461Z,26.23
2018-01-21T08:50:35.187Z,30.12
2018-01-21T08:51:41.511Z,26.70
2018-01-21T08:52:47.238Z,29.48
2018-01-21T08:53:53.355Z,30.85
2018-01-21T08:54:59.101Z,28.80
2018-01-21T08:56:04.843Z,28.15
2018-01-21T08:57:10.629Z,30.05
2018-01-21T08:58:16.415Z,32.70
2018-01-21T08:59:22.172Z,27.62
2018-01-21T09:00:27.901Z,30.83
2018-01-21T09:01:33.645Z,28.60
2018-01-21T09:02:39.424Z,30.27
2018-01-21T09:03:45.221Z,27.13
2018-01-21T09:04:51.079Z,31.27
2018-01-21T09:05:56.836Z,30.62
2018-01-21T09:07:02.673Z,31.10
2018-01-21T09:08:08.460Z,30.45
2018-01-21T09:09:14.394Z,29.65
2018-01-21T09:10:20.173Z,28.80
2018-01-21T09:11:26.757Z,30.85
2018-01-21T09:12:32.515Z,30.98
2018-01-21T09:13:38.241Z,30.85
2018-01-21T09:14:43.970Z,29.23
2018-01-21T09:15:49.724Z,30.67
2018-01-21T09:16:55.499Z,25.83
2018-01-21T09:18:01.021Z,25.62
2018-01-21T09:19:06.839Z,29.15
2018-01-21T09:20:12.591Z,28.83
2018-01-21T09:21:18.471Z,29.58
2018-01-21T09:22:25.292Z,29.00
2018-01-21T09:23:31.116Z,28.75
2018-01-21T09:24:37.657Z,31.50
2018-01-21T09:25:43.568Z,26.12
2018-01-21T09:26:49.348Z,29.80
2018-01-21T09:27:55.886Z,28.92
2018-01-21T09:29:01.652Z,27.45
2018-01-21T09:30:08.185Z,27.25
2018-01-21T09:31:13.936Z,30.23
2018-01-21T09:32:19.711Z,29.55
2018-01-21T09:33:25.440Z,29.23
2018-01-21T09:34:31.958Z,34.00
2018-01-21T09:35:37.715Z,33.33
2018-01-21T09:36:44.236Z,29.90
2018-01-21T09:37:50.030Z,30.30
2018-01-21T09:38:56.597Z,33.67
2018-01-21T09:40:02.712Z,32.30
2018-01-21T09:41:09.560Z,33.67
2018-01-21T09:42:15.680Z,33.20
2018-01-21T09:43:22.770Z,31.37
2018-01-21T09:44:29.059Z,32.00
2018-01-21T09:45:35.083Z,34.38
2018-01-21T09:46:41.025Z,35.60
2018-01-21T09:47:48.551Z,33.22
2018-01-21T09:48:54.333Z,35.08
2018-01-21T09:50:00.073Z,32.42
2018-01-21T09:51:05.810Z,33.97
2018-01-21T09:52:11.588Z,37.40
2018-01-21T09:53:18.224Z,33.20
2018-01-21T09:54:24.011Z,31.75
2018-01-21T09:55:29.752Z,31.42
2018-01-21T09:56:35.508Z,36.72
2018-01-21T09:57:41.308Z,37.50
2018-01-21T09:58:47.355Z,29.80
2018-01-21T09:59:53.124Z,30.52
2018-01-21T10:00:58.855Z,32.80
2018-01-21T10:02:04.410Z,33.60
2018-01-21T10:03:12.259Z,35.03
2018-01-21T10:04:18.117Z,33.50
2018-01-21T10:05:26.088Z,29.58
2018-01-21T10:06:32.128Z,33.28
2018-01-21T10:07:38.768Z,32.13
2018-01-21T10:08:45.761Z,32.13
2018-01-21T10:09:51.958Z,30.98
2018-01-21T10:10:58.459Z,34.25
2018-01-21T10:12:05.146Z,30.67
2018-01-21T10:13:11.781Z,32.05
2018-01-21T10:14:18.677Z,33.28
2018-01-21T10:15:24.690Z,30.80
2018-01-21T10:16:30.687Z,32.83
2018-01-21T10:17:36.842Z,32.13
2018-01-21T10:18:44.606Z,31.30
2018-01-21T10:19:50.584Z,33.20
2018-01-21T10:20:57.909Z,35.70
2018-01-21T10:22:05.240Z,35.42
2018-01-21T10:23:16.179Z,32.78
2018-01-21T10:24:22.019Z,31.50
2018-01-21T10:25:28.656Z,31.67
2018-01-21T10:26:36.953Z,32.08
2018-01-21T10:27:43.847Z,29.48
2018-01-21T10:28:52.196Z,29.55
2018-01-21T10:30:01.853Z,30.92
2018-01-21T10:31:08.836Z,33.07
2018-01-21T10:32:14.792Z,32.03
2018-01-21T10:33:20.868Z,28.98
2018-01-21T10:34:27.146Z,32.55
2018-01-21T10:35:35.485Z,31.67
2018-01-21T10:36:41.750Z,32.22
2018-01-21T10:37:49.546Z,28.52
2018-01-21T10:38:58.951Z,29.25
2018-01-21T10:40:06.922Z,28.08
2018-01-21T10:41:15.743Z,26.15
2018-01-21T10:42:22.805Z,27.65
2018-01-21T10:43:30.931Z,28.92
2018-01-21T10:44:37.728Z,28.27
2018-01-21T10:45:43.842Z,26.10
2018-01-21T10:46:50.905Z,28.00
2018-01-21T10:47:57.781Z,32.75
2018-01-21T10:49:05.137Z,27.58
2018-01-21T10:50:13.712Z,25.17
2018-01-21T10:51:19.772Z,26.35
2018-01-21T10:52:29.979Z,25.85
2018-01-21T10:53:36.229Z,28.73
2018-01-21T10:54:42.991Z,27.75
2018-01-21T10:55:49.192Z,25.17
2018-01-21T10:56:55.743Z,25.90
2018-01-21T10:58:04.544Z,25.60
2018-01-21T10:59:10.747Z,27.02
2018-01-21T11:00:18.959Z,29.33
2018-01-21T11:01:25.446Z,23.20
2018-01-21T11:02:31.637Z,25.48
2018-01-21T11:03:39.863Z,26.48
2018-01-21T11:04:45.984Z,25.75
2018-01-21T11:06:03.012Z,26.98
2018-01-21T11:07:11.727Z,25.75
2018-01-21T11:08:18.208Z,28.87
2018-01-21T11:09:24.724Z,30.55
2018-01-21T11:10:30.895Z,26.70
2018-01-21T11:11:38.011Z,25.20
2018-01-21T11:12:44.034Z,26.08
2018-01-21T11:13:51.471Z,25.12
2018-01-21T11:15:01.799Z,26.12
2018-01-21T11:16:10.064Z,24.98
2018-01-21T11:17:16.724Z,23.83
2018-01-21T11:18:24.071Z,25.90
2018-01-21T11:19:31.888Z,25.60
2018-01-21T11:20:38.026Z,25.35
2018-01-21T11:21:45.629Z,26.37
2018-01-21T11:22:51.581Z,27.40
2018-01-21T11:23:57.812Z,25.75
2018-01-21T11:25:05.927Z,28.15
2018-01-21T11:26:11.947Z,29.50
2018-01-21T11:27:18.454Z,25.23
2018-01-21T11:28:25.497Z,24.48
2018-01-21T11:29:34.144Z,26.15
2018-01-21T11:30:42.287Z,26.75
2018-01-21T11:31:50.727Z,25.88
2018-01-21T11:32:57.844Z,27.13
2018-01-21T11:34:07.614Z,26.92
2018-01-21T11:35:15.406Z,26.33
2018-01-21T11:36:21.580Z,27.25
2018-01-21T11:37:29.690Z,25.12
2018-01-21T11:38:37.162Z,26.12
2018-01-21T11:39:45.049Z,27.58
2018-01-21T11:40:51.265Z,27.62
2018-01-21T11:41:57.122Z,30.02
2018-01-21T11:43:03.270Z,29.15
2018-01-21T11:44:10.438Z,27.50
2018-01-21T11:45:16.562Z,28.00
2018-01-21T11:46:24.692Z,28.48
2018-01-21T11:47:30.594Z,28.90
2018-01-21T11:48:37.466Z,28.62
2018-01-21T11:49:45.940Z,30.67
2018-01-21T11:50:53.065Z,29.48
2018-01-21T11:52:00.411Z,28.35
2018-01-21T11:53:10.524Z,31.58
2018-01-21T11:54:19.186Z,27.40
2018-01-21T11:55:26.890Z,27.58
2018-01-21T11:56:33.815Z,28.80
2018-01-21T11:57:40.027Z,28.95
2018-01-21T11:58:46.794Z,28.27
2018-01-21T11:59:54.026Z,29.27
2018-01-21T12:01:05.205Z,31.60
2018-01-21T12:02:12.197Z,31.15
2018-01-21T12:03:20.344Z,30.08
2018-01-21T12:04:27.386Z,34.03
2018-01-21T12:05:35.104Z,31.30
2018-01-21T12:06:42.243Z,32.13
2018-01-21T12:07:48.763Z,32.17
2018-01-21T12:09:00.728Z,31.05
2018-01-21T12:10:06.881Z,28.62
2018-01-21T12:11:12.984Z,30.73
2018-01-21T12:12:20.122Z,29.60
2018-01-21T12:13:26.734Z,31.70
2018-01-21T12:14:32.886Z,34.45
2018-01-21T12:15:39.032Z,28.55
2018-01-21T12:16:45.942Z,29.35
2018-01-21T12:17:52.992Z,28.05
2018-01-21T12:18:59.534Z,29.80
2018-01-21T12:20:05.262Z,27.75
2018-01-21T12:21:11.372Z,33.17
2018-01-21T12:22:18.207Z,29.90
2018-01-21T12:23:24.972Z,31.90
2018-01-21T12:24:33.901Z,26.85
2018-01-21T12:25:40.906Z,30.88
2018-01-21T12:26:47.798Z,30.75
2018-01-21T12:27:53.985Z,32.20
2018-01-21T12:28:59.922Z,31.45
2018-01-21T12:30:05.773Z,33.47
2018-01-21T12:31:13.268Z,30.98
2018-01-21T12:32:20.261Z,32.65
2018-01-21T12:33:27.094Z,32.13
2018-01-21T12:34:35.281Z,33.92
2018-01-21T12:35:41.466Z,30.20
2018-01-21T12:36:49.183Z,32.25
2018-01-21T12:37:55.230Z,31.60
2018-01-21T12:39:02.216Z,27.45
2018-01-21T12:40:08.601Z,28.52
2018-01-21T12:41:15.952Z,32.88
2018-01-21T12:42:23.918Z,34.70
2018-01-21T12:43:31.492Z,29.08
2018-01-21T12:44:38.305Z,30.35
2018-01-21T12:45:44.389Z,36.35
2018-01-21T12:46:50.475Z,31.12
2018-01-21T12:47:57.862Z,29.80
2018-01-21T12:49:04.080Z,34.80
2018-01-21T12:50:11.867Z,33.92
2018-01-21T12:51:19.723Z,34.67
2018-01-21T12:52:25.858Z,34.85
2018-01-21T12:53:33.621Z,32.00
2018-01-21T12:54:39.671Z,34.28
2018-01-21T12:55:45.817Z,30.95
2018-01-21T12:56:51.893Z,29.52
2018-01-21T12:57:58.264Z,31.90
2018-01-21T12:59:04.831Z,30.85
2018-01-21T13:00:10.906Z,32.30
2018-01-21T13:01:18.307Z,31.27
2018-01-21T13:02:24.392Z,31.80
2018-01-21T13:03:31.170Z,29.67
2018-01-21T13:04:37.286Z,29.77
2018-01-21T13:05:43.412Z,32.17
2018-01-21T13:06:50.636Z,31.83
2018-01-21T13:07:56.710Z,31.60
2018-01-21T13:09:02.781Z,32.88
2018-01-21T13:10:10.936Z,29.40
2018-01-21T13:11:17.112Z,33.28
2018-01-21T13:12:23.170Z,28.35
2018-01-21T13:13:30.124Z,30.60
2018-01-21T13:14:36.232Z,26.55
2018-01-21T13:15:42.597Z,29.25
2018-01-21T13:16:52.530Z,28.05
2018-01-21T13:17:59.703Z,24.90
2018-01-21T13:19:10.399Z,30.15
2018-01-21T13:20:16.465Z,33.15
2018-01-21T13:21:24.014Z,33.10
2018-01-21T13:22:30.053Z,30.27
2018-01-21T13:23:36.194Z,28.67
2018-01-21T13:24:42.704Z,29.37
2018-01-21T13:25:49.551Z,28.77
2018-01-21T13:26:55.941Z,30.98
2018-01-21T13:28:02.966Z,26.45
2018-01-21T13:29:09.032Z,28.12
2018-01-21T13:30:15.035Z,29.35
2018-01-21T13:31:21.430Z,30.05
2018-01-21T13:32:28.079Z,31.05
2018-01-21T13:33:35.559Z,26.27
2018-01-21T13:34:41.662Z,31.05
2018-01-21T13:35:48.880Z,26.40
2018-01-21T13:36:54.958Z,30.33
2018-01-21T13:38:01.863Z,25.65
2018-01-21T13:39:09.335Z,29.33
2018-01-21T13:40:15.928Z,24.33
2018-01-21T13:41:21.942Z,26.62
2018-01-21T13:42:28.737Z,28.35
2018-01-21T13:43:34.852Z,30.58
2018-01-21T13:44:41.632Z,25.95
2018-01-21T13:45:48.445Z,31.40
2018-01-21T13:46:55.266Z,30.17
2018-01-21T13:48:02.415Z,24.75
2018-01-21T13:49:08.465Z,32.58
2018-01-21T13:50:14.871Z,28.52
2018-01-21T13:51:21.574Z,28.90
2018-01-21T13:52:27.701Z,29.67
2018-01-21T13:53:33.801Z,30.67
2018-01-21T13:54:39.888Z,31.08
2018-01-21T13:55:45.929Z,30.48
2018-01-21T13:56:51.965Z,31.02
2018-01-21T13:57:58.544Z,28.87
2018-01-21T13:59:04.591Z,34.17
2018-01-21T14:00:15.371Z,35.10
2018-01-21T14:01:22.126Z,27.05
2018-01-21T14:02:29.294Z,29.87
2018-01-21T14:03:35.236Z,28.02
2018-01-21T14:04:41.161Z,31.42
2018-01-21T14:05:48.033Z,29.23
2018-01-21T14:06:54.868Z,29.48
2018-01-21T14:08:02.897Z,26.05
2018-01-21T14:09:12.248Z,30.55
2018-01-21T14:10:17.872Z,28.30
2018-01-21T14:11:23.697Z,28.38
2018-01-21T14:12:29.763Z,31.83
2018-01-21T14:13:36.294Z,37.30
2018-01-21T14:14:43.231Z,27.52
2018-01-21T14:15:49.086Z,27.80
2018-01-21T14:16:56.270Z,28.00